sensor_id;sensor_type;location;lat;lon;timestamp;pressure;altitude;pressure_sealevel;temperature;humidity
47280;BME280;34064;44.942;0.008;2023-03-03T00:01:39;99422.41;;;7.81;49.80
47280;BME280;34064;44.942;0.008;2023-03-03T00:04:07;99417.09;;;7.81;50.04
47280;BME280;34064;44.942;0.008;2023-03-03T00:06:35;99422.41;;;7.81;49.98
47280;BME280;34064;44.942;0.008;2023-03-03T00:09:02;99417.09;;;7.81;50.05
47280;BME280;34064;44.942;0.008;2023-03-03T00:11:30;99412.75;;;7.80;50.24
47280;BME280;34064;44.942;0.008;2023-03-03T00:13:58;99417.19;;;7.80;50.17
47280;BME280;34064;44.942;0.008;2023-03-03T00:16:38;99409.38;;;7.78;50.34
47280;BME280;34064;44.942;0.008;2023-03-03T00:19:18;99415.59;;;7.77;50.11
47280;BME280;34064;44.942;0.008;2023-03-03T00:21:47;99411.13;;;7.78;50.19
47280;BME280;34064;44.942;0.008;2023-03-03T00:24:19;99418.25;;;7.77;50.17
47280;BME280;34064;44.942;0.008;2023-03-03T00:26:50;99405.00;;;7.77;50.17
47280;BME280;34064;44.942;0.008;2023-03-03T00:29:34;99411.25;;;7.76;50.03
47280;BME280;34064;44.942;0.008;2023-03-03T00:32:23;99409.63;;;7.74;51.14
47280;BME280;34064;44.942;0.008;2023-03-03T00:34:53;99414.03;;;7.73;50.74
47280;BME280;34064;44.942;0.008;2023-03-03T00:37:29;99403.47;;;7.73;50.65
47280;BME280;34064;44.942;0.008;2023-03-03T00:40:20;99404.41;;;7.72;50.49
47280;BME280;34064;44.942;0.008;2023-03-03T00:42:53;99407.91;;;7.73;50.25
47280;BME280;34064;44.942;0.008;2023-03-03T00:47:58;99407.13;;;7.71;50.62
47280;BME280;34064;44.942;0.008;2023-03-03T00:50:34;99407.97;;;7.71;50.29
47280;BME280;34064;44.942;0.008;2023-03-03T00:53:14;99407.13;;;7.71;50.77
47280;BME280;34064;44.942;0.008;2023-03-03T00:55:43;99401.94;;;7.69;51.07
47280;BME280;34064;44.942;0.008;2023-03-03T00:58:09;99398.31;;;7.70;50.77
47280;BME280;34064;44.942;0.008;2023-03-03T01:00:37;99404.59;;;7.69;50.74
47280;BME280;34064;44.942;0.008;2023-03-03T01:03:11;99405.44;;;7.70;50.80
47280;BME280;34064;44.942;0.008;2023-03-03T01:05:38;99401.94;;;7.69;50.74
47280;BME280;34064;44.942;0.008;2023-03-03T01:08:05;99400.22;;;7.68;50.57
47280;BME280;34064;44.942;0.008;2023-03-03T01:10:35;99401.94;;;7.69;50.48
47280;BME280;34064;44.942;0.008;2023-03-03T01:13:03;99396.66;;;7.69;50.66
47280;BME280;34064;44.942;0.008;2023-03-03T01:15:32;99387.94;;;7.67;50.88
47280;BME280;34064;44.942;0.008;2023-03-03T01:17:58;99400.22;;;7.68;50.83
47280;BME280;34064;44.942;0.008;2023-03-03T01:20:25;99394.94;;;7.68;50.79
47280;BME280;34064;44.942;0.008;2023-03-03T01:22:53;99395.88;;;7.67;50.82
47280;BME280;34064;44.942;0.008;2023-03-03T01:25:20;99393.22;;;7.67;50.93
47280;BME280;34064;44.942;0.008;2023-03-03T01:27:48;99387.94;;;7.67;50.82
47280;BME280;34064;44.942;0.008;2023-03-03T01:30:15;99391.53;;;7.66;50.95
47280;BME280;34064;44.942;0.008;2023-03-03T01:32:42;99395.09;;;7.65;51.38
47280;BME280;34064;44.942;0.008;2023-03-03T01:35:09;99392.47;;;7.65;51.02
47280;BME280;34064;44.942;0.008;2023-03-03T01:37:35;99388.09;;;7.64;51.53
47280;BME280;34064;44.942;0.008;2023-03-03T01:40:04;99391.69;;;7.63;51.55
47280;BME280;34064;44.942;0.008;2023-03-03T01:42:31;99392.56;;;7.63;51.41
47280;BME280;34064;44.942;0.008;2023-03-03T01:45:14;99388.19;;;7.62;51.50
47280;BME280;34064;44.942;0.008;2023-03-03T01:48:06;99389.22;;;7.60;51.42
47280;BME280;34064;44.942;0.008;2023-03-03T01:53:48;99387.59;;;7.57;51.79
47280;BME280;34064;44.942;0.008;2023-03-03T01:56:17;99392.03;;;7.57;51.88
47280;BME280;34064;44.942;0.008;2023-03-03T02:01:25;99393.06;;;7.54;51.92
47280;BME280;34064;44.942;0.008;2023-03-03T02:03:53;99389.53;;;7.54;51.83
47280;BME280;34064;44.942;0.008;2023-03-03T02:06:27;99395.75;;;7.53;51.65
47280;BME280;34064;44.942;0.008;2023-03-03T02:09:15;99385.19;;;7.53;52.14
47280;BME280;34064;44.942;0.008;2023-03-03T02:11:44;99382.63;;;7.51;52.30
47280;BME280;34064;44.942;0.008;2023-03-03T02:14:12;99383.47;;;7.52;52.59
47280;BME280;34064;44.942;0.008;2023-03-03T02:16:39;99398.50;;;7.51;52.57
47280;BME280;34064;44.942;0.008;2023-03-03T02:19:12;99388.75;;;7.52;52.39
47280;BME280;34064;44.942;0.008;2023-03-03T02:21:43;99388.75;;;7.52;51.99
47280;BME280;34064;44.942;0.008;2023-03-03T02:24:24;99383.47;;;7.52;52.03
47280;BME280;34064;44.942;0.008;2023-03-03T02:26:51;99379.16;;;7.51;52.04
47280;BME280;34064;44.942;0.008;2023-03-03T02:29:18;99384.59;;;7.47;52.27
47280;BME280;34064;44.942;0.008;2023-03-03T02:31:44;99386.56;;;7.44;52.38
47280;BME280;34064;44.942;0.008;2023-03-03T02:34:10;99384.84;;;7.43;52.67
47280;BME280;34064;44.942;0.008;2023-03-03T02:36:38;99377.00;;;7.41;52.49
47280;BME280;34064;44.942;0.008;2023-03-03T02:39:21;99373.59;;;7.39;52.47
47280;BME280;34064;44.942;0.008;2023-03-03T02:44:36;99373.66;;;7.38;52.55
47280;BME280;34064;44.942;0.008;2023-03-03T02:47:02;99377.16;;;7.38;52.20
47280;BME280;34064;44.942;0.008;2023-03-03T02:49:31;99381.59;;;7.38;52.30
47280;BME280;34064;44.942;0.008;2023-03-03T02:51:59;99371.09;;;7.36;52.77
47280;BME280;34064;44.942;0.008;2023-03-03T02:54:27;99378.09;;;7.37;52.50
47280;BME280;34064;44.942;0.008;2023-03-03T02:56:55;99370.31;;;7.34;52.68
47280;BME280;34064;44.942;0.008;2023-03-03T02:59:21;99379.19;;;7.33;52.63
47280;BME280;34064;44.942;0.008;2023-03-03T03:01:48;99377.50;;;7.32;52.98
47280;BME280;34064;44.942;0.008;2023-03-03T03:04:23;99378.44;;;7.31;52.83
47280;BME280;34064;44.942;0.008;2023-03-03T03:06:50;99374.88;;;7.32;53.04
47280;BME280;34064;44.942;0.008;2023-03-03T03:09:18;99371.44;;;7.30;52.62
47280;BME280;34064;44.942;0.008;2023-03-03T03:11:45;99370.53;;;7.31;52.53
47280;BME280;34064;44.942;0.008;2023-03-03T03:14:12;99368.81;;;7.30;52.96
47280;BME280;34064;44.942;0.008;2023-03-03T03:16:39;99368.81;;;7.30;53.07
47280;BME280;34064;44.942;0.008;2023-03-03T03:19:06;99374.09;;;7.30;52.86
47280;BME280;34064;44.942;0.008;2023-03-03T03:21:34;99369.66;;;7.30;53.20
47280;BME280;34064;44.942;0.008;2023-03-03T03:24:02;99367.09;;;7.29;53.07
47280;BME280;34064;44.942;0.008;2023-03-03T03:26:29;99369.75;;;7.29;52.95
47280;BME280;34064;44.942;0.008;2023-03-03T03:28:56;99361.91;;;7.27;52.96
47280;BME280;34064;44.942;0.008;2023-03-03T03:31:22;99372.47;;;7.27;53.30
47280;BME280;34064;44.942;0.008;2023-03-03T03:33:49;99365.53;;;7.25;53.64
47280;BME280;34064;44.942;0.008;2023-03-03T03:36:17;99363.00;;;7.23;53.46
47280;BME280;34064;44.942;0.008;2023-03-03T03:38:44;99365.53;;;7.25;53.52
47280;BME280;34064;44.942;0.008;2023-03-03T03:41:12;99362.13;;;7.23;53.83
47280;BME280;34064;44.942;0.008;2023-03-03T03:43:40;99364.75;;;7.23;53.21
47280;BME280;34064;44.942;0.008;2023-03-03T03:46:06;99361.28;;;7.22;53.54
47280;BME280;34064;44.942;0.008;2023-03-03T03:48:34;99355.16;;;7.22;53.24
47280;BME280;34064;44.942;0.008;2023-03-03T03:51:01;99355.16;;;7.22;53.36
47280;BME280;34064;44.942;0.008;2023-03-03T03:53:28;99365.72;;;7.22;53.21
47280;BME280;34064;44.942;0.008;2023-03-03T03:55:55;99366.47;;;7.24;53.56
47280;BME280;34064;44.942;0.008;2023-03-03T03:58:22;99371.00;;;7.22;53.41
47280;BME280;34064;44.942;0.008;2023-03-03T04:00:50;99370.25;;;7.20;53.39
47280;BME280;34064;44.942;0.008;2023-03-03T04:03:16;99368.63;;;7.17;53.78
47280;BME280;34064;44.942;0.008;2023-03-03T04:05:43;99365.19;;;7.15;53.88
47280;BME280;34064;44.942;0.008;2023-03-03T04:08:10;99372.19;;;7.16;53.57
47280;BME280;34064;44.942;0.008;2023-03-03T04:10:36;99367.06;;;7.13;53.86
47280;BME280;34064;44.942;0.008;2023-03-03T04:13:03;99375.09;;;7.11;53.98
47280;BME280;34064;44.942;0.008;2023-03-03T04:15:29;99368.09;;;7.10;53.90
47280;BME280;34064;44.942;0.008;2023-03-03T04:17:56;99368.09;;;7.10;53.50
47280;BME280;34064;44.942;0.008;2023-03-03T04:20:22;99369.84;;;7.10;53.75
47280;BME280;34064;44.942;0.008;2023-03-03T04:22:49;99372.44;;;7.11;53.48
47280;BME280;34064;44.942;0.008;2023-03-03T04:25:16;99361.94;;;7.10;53.53
47280;BME280;34064;44.942;0.008;2023-03-03T04:27:43;99367.16;;;7.11;53.63
47280;BME280;34064;44.942;0.008;2023-03-03T04:30:11;99365.34;;;7.12;53.83
47280;BME280;34064;44.942;0.008;2023-03-03T04:32:38;99368.09;;;7.10;54.13
47280;BME280;34064;44.942;0.008;2023-03-03T04:35:05;99368.09;;;7.10;53.90
47280;BME280;34064;44.942;0.008;2023-03-03T04:37:31;99369.78;;;7.11;53.85
47280;BME280;34064;44.942;0.008;2023-03-03T04:39:57;99367.16;;;7.11;54.01
47280;BME280;34064;44.942;0.008;2023-03-03T04:42:24;99373.38;;;7.10;54.13
47280;BME280;34064;44.942;0.008;2023-03-03T04:44:53;99368.25;;;7.07;53.94
47280;BME280;34064;44.942;0.008;2023-03-03T04:47:19;99366.53;;;7.06;53.72
47280;BME280;34064;44.942;0.008;2023-03-03T04:49:45;99366.63;;;7.05;53.85
47280;BME280;34064;44.942;0.008;2023-03-03T04:52:12;99363.88;;;7.06;53.63
47280;BME280;34064;44.942;0.008;2023-03-03T04:54:38;99361.25;;;7.06;53.73
47280;BME280;34064;44.942;0.008;2023-03-03T04:57:04;99371.81;;;7.06;54.04
47280;BME280;34064;44.942;0.008;2023-03-03T04:59:31;99370.09;;;7.05;54.11
47280;BME280;34064;44.942;0.008;2023-03-03T05:01:57;99365.75;;;7.04;54.18
47280;BME280;34064;44.942;0.008;2023-03-03T05:04:23;99367.56;;;7.03;54.09
47280;BME280;34064;44.942;0.008;2023-03-03T05:06:50;99363.09;;;7.04;53.97
47280;BME280;34064;44.942;0.008;2023-03-03T05:09:16;99360.56;;;7.02;54.38
47280;BME280;34064;44.942;0.008;2023-03-03T05:11:43;99362.34;;;7.02;53.93
47280;BME280;34064;44.942;0.008;2023-03-03T05:14:09;99360.72;;;6.99;54.00
47280;BME280;34064;44.942;0.008;2023-03-03T05:16:35;99363.59;;;6.95;54.36
47280;BME280;34064;44.942;0.008;2023-03-03T05:19:02;99356.63;;;6.94;54.42
47280;BME280;34064;44.942;0.008;2023-03-03T05:21:28;99370.59;;;6.96;54.08
47280;BME280;34064;44.942;0.008;2023-03-03T05:23:54;99365.31;;;6.96;54.22
47280;BME280;34064;44.942;0.008;2023-03-03T05:26:21;99367.94;;;6.96;54.32
47280;BME280;34064;44.942;0.008;2023-03-03T05:28:47;99365.31;;;6.96;54.07
47280;BME280;34064;44.942;0.008;2023-03-03T05:31:13;99366.19;;;6.96;54.39
47280;BME280;34064;44.942;0.008;2023-03-03T05:33:42;99367.00;;;6.97;54.34
47280;BME280;34064;44.942;0.008;2023-03-03T05:36:08;99366.19;;;6.96;54.17
47280;BME280;34064;44.942;0.008;2023-03-03T05:38:35;99372.47;;;6.94;55.02
47280;BME280;34064;44.942;0.008;2023-03-03T05:41:01;99373.41;;;6.93;54.46
47280;BME280;34064;44.942;0.008;2023-03-03T05:43:27;99375.28;;;6.91;54.48
47280;BME280;34064;44.942;0.008;2023-03-03T05:45:58;99374.50;;;6.89;54.50
47280;BME280;34064;44.942;0.008;2023-03-03T05:48:26;99371.06;;;6.86;54.32
47280;BME280;34064;44.942;0.008;2023-03-03T05:50:56;99376.34;;;6.86;54.27
47280;BME280;34064;44.942;0.008;2023-03-03T05:53:25;99373.66;;;6.88;54.33
47280;BME280;34064;44.942;0.008;2023-03-03T05:55:53;99371.00;;;6.88;54.48
47280;BME280;34064;44.942;0.008;2023-03-03T05:58:24;99363.94;;;6.89;54.51
47280;BME280;34064;44.942;0.008;2023-03-03T06:00:52;99371.84;;;6.89;54.33
47280;BME280;34064;44.942;0.008;2023-03-03T06:03:20;99376.28;;;6.88;54.86
47280;BME280;34064;44.942;0.008;2023-03-03T06:05:47;99377.22;;;6.87;54.90
47280;BME280;34064;44.942;0.008;2023-03-03T06:08:14;99375.41;;;6.87;54.74
47280;BME280;34064;44.942;0.008;2023-03-03T06:10:42;99385.06;;;6.89;54.50
47280;BME280;34064;44.942;0.008;2023-03-03T06:13:10;99385.06;;;6.89;54.42
47280;BME280;34064;44.942;0.008;2023-03-03T06:15:37;99385.06;;;6.89;54.41
47280;BME280;34064;44.942;0.008;2023-03-03T06:18:05;99386.00;;;6.87;55.09
47280;BME280;34064;44.942;0.008;2023-03-03T06:20:33;99389.56;;;6.86;54.96
47280;BME280;34064;44.942;0.008;2023-03-03T06:23:01;99397.66;;;6.83;54.88
47280;BME280;34064;44.942;0.008;2023-03-03T06:25:29;99400.34;;;6.82;54.78
47280;BME280;34064;44.942;0.008;2023-03-03T06:27:56;99399.53;;;6.81;54.56
47280;BME280;34064;44.942;0.008;2023-03-03T06:30:23;99402.94;;;6.83;54.76
47280;BME280;34064;44.942;0.008;2023-03-03T06:32:53;99402.94;;;6.83;55.00
47280;BME280;34064;44.942;0.008;2023-03-03T06:35:20;99405.59;;;6.83;55.37
47280;BME280;34064;44.942;0.008;2023-03-03T06:37:47;99416.16;;;6.83;55.24
47280;BME280;34064;44.942;0.008;2023-03-03T06:40:16;99413.56;;;6.82;55.26
47280;BME280;34064;44.942;0.008;2023-03-03T06:42:44;99420.66;;;6.81;55.17
47280;BME280;34064;44.942;0.008;2023-03-03T06:45:12;99418.00;;;6.81;54.95
47280;BME280;34064;44.942;0.008;2023-03-03T06:47:40;99420.56;;;6.83;54.84
47280;BME280;34064;44.942;0.008;2023-03-03T06:50:09;99420.50;;;6.84;54.71
47280;BME280;34064;44.942;0.008;2023-03-03T06:52:37;99421.34;;;6.85;54.99
47280;BME280;34064;44.942;0.008;2023-03-03T06:55:16;99423.16;;;6.84;55.05
47280;BME280;34064;44.942;0.008;2023-03-03T06:57:44;99427.47;;;6.85;54.84
47280;BME280;34064;44.942;0.008;2023-03-03T07:00:17;99436.34;;;6.84;54.99
47280;BME280;34064;44.942;0.008;2023-03-03T07:02:46;99432.84;;;6.84;54.73
47280;BME280;34064;44.942;0.008;2023-03-03T07:05:17;99432.00;;;6.83;55.10
47280;BME280;34064;44.942;0.008;2023-03-03T07:07:44;99436.34;;;6.84;55.20
47280;BME280;34064;44.942;0.008;2023-03-03T07:10:23;99436.34;;;6.84;55.05
47280;BME280;34064;44.942;0.008;2023-03-03T07:12:49;99443.31;;;6.85;54.89
47280;BME280;34064;44.942;0.008;2023-03-03T07:15:21;99438.03;;;6.85;54.90
47280;BME280;34064;44.942;0.008;2023-03-03T07:17:54;99445.03;;;6.86;54.73
47280;BME280;34064;44.942;0.008;2023-03-03T07:20:35;99455.75;;;6.83;54.90
47280;BME280;34064;44.942;0.008;2023-03-03T07:23:18;99459.34;;;6.82;54.96
47280;BME280;34064;44.942;0.008;2023-03-03T07:25:46;99464.75;;;6.79;54.95
47280;BME280;34064;44.942;0.008;2023-03-03T07:28:28;99470.03;;;6.79;55.17
47280;BME280;34064;44.942;0.008;2023-03-03T07:30:56;99472.59;;;6.81;55.25
47280;BME280;34064;44.942;0.008;2023-03-03T07:33:39;99475.00;;;6.85;55.22
47280;BME280;34064;44.942;0.008;2023-03-03T07:38:56;99476.88;;;6.83;55.57
47280;BME280;34064;44.942;0.008;2023-03-03T07:41:24;99479.59;;;6.82;55.70
47280;BME280;34064;44.942;0.008;2023-03-03T07:44:16;99484.59;;;6.88;55.53
47280;BME280;34064;44.942;0.008;2023-03-03T07:46:49;99479.81;;;6.95;55.10
47280;BME280;34064;44.942;0.008;2023-03-03T07:51:45;99473.38;;;7.00;55.61
47280;BME280;34064;44.942;0.008;2023-03-03T07:54:14;99476.56;;;7.07;55.34
47280;BME280;34064;44.942;0.008;2023-03-03T07:56:42;99476.22;;;7.13;55.12
47280;BME280;34064;44.942;0.008;2023-03-03T08:01:46;99469.38;;;7.27;55.15
47280;BME280;34064;44.942;0.008;2023-03-03T08:04:25;99470.84;;;7.32;54.87
47280;BME280;34064;44.942;0.008;2023-03-03T08:06:57;99474.19;;;7.36;55.07
47280;BME280;34064;44.942;0.008;2023-03-03T08:09:45;99464.16;;;7.43;55.34
47280;BME280;34064;44.942;0.008;2023-03-03T08:15:10;99464.34;;;7.56;54.83
47280;BME280;34064;44.942;0.008;2023-03-03T08:17:42;99464.88;;;7.62;55.24
47280;BME280;34064;44.942;0.008;2023-03-03T08:23:00;99461.56;;;7.75;54.81
47280;BME280;34064;44.942;0.008;2023-03-03T08:25:27;99461.25;;;7.81;54.99
47280;BME280;34064;44.942;0.008;2023-03-03T08:27:53;99463.63;;;7.86;55.27
47280;BME280;34064;44.942;0.008;2023-03-03T08:30:19;99470.28;;;7.93;55.28
47280;BME280;34064;44.942;0.008;2023-03-03T08:32:46;99465.41;;;8.01;54.88
47280;BME280;34064;44.942;0.008;2023-03-03T08:35:12;99458.94;;;8.07;55.00
47280;BME280;34064;44.942;0.008;2023-03-03T08:37:38;99462.09;;;8.14;55.06
47280;BME280;34064;44.942;0.008;2023-03-03T08:40:05;99460.13;;;8.17;55.17
47280;BME280;34064;44.942;0.008;2023-03-03T08:42:32;99467.66;;;8.25;55.16
47280;BME280;34064;44.942;0.008;2023-03-03T08:44:58;99467.28;;;8.31;55.01
47280;BME280;34064;44.942;0.008;2023-03-03T08:47:25;99464.38;;;8.36;54.88
47280;BME280;34064;44.942;0.008;2023-03-03T08:49:51;99457.00;;;8.41;54.93
47280;BME280;34064;44.942;0.008;2023-03-03T08:52:19;99457.56;;;8.48;54.93
47280;BME280;34064;44.942;0.008;2023-03-03T08:54:46;99447.63;;;8.51;54.89
47280;BME280;34064;44.942;0.008;2023-03-03T08:57:12;99450.78;;;8.58;54.81
47280;BME280;34064;44.942;0.008;2023-03-03T08:59:38;99448.75;;;8.63;54.80
47280;BME280;34064;44.942;0.008;2023-03-03T09:02:05;99444.94;;;8.67;54.78
47280;BME280;34064;44.942;0.008;2023-03-03T09:04:32;99443.84;;;8.71;54.68
47280;BME280;34064;44.942;0.008;2023-03-03T09:06:59;99447.25;;;8.73;54.58
47280;BME280;34064;44.942;0.008;2023-03-03T09:09:25;99439.78;;;8.80;54.42
47280;BME280;34064;44.942;0.008;2023-03-03T09:11:58;99444.81;;;8.85;54.42
47280;BME280;34064;44.942;0.008;2023-03-03T09:14:28;99445.41;;;8.90;54.15
47280;BME280;34064;44.942;0.008;2023-03-03T09:16:55;99445.19;;;8.93;53.87
47280;BME280;34064;44.942;0.008;2023-03-03T09:19:28;99445.03;;;8.96;54.00
47280;BME280;34064;44.942;0.008;2023-03-03T09:21:58;99447.31;;;9.02;53.81
47280;BME280;34064;44.942;0.008;2023-03-03T09:24:29;99450.72;;;9.04;53.66
47280;BME280;34064;44.942;0.008;2023-03-03T09:26:57;99441.72;;;9.07;53.56
47280;BME280;34064;44.942;0.008;2023-03-03T09:29:26;99437.00;;;9.12;53.56
47280;BME280;34064;44.942;0.008;2023-03-03T09:31:55;99448.94;;;9.19;53.11
47280;BME280;34064;44.942;0.008;2023-03-03T09:36:53;99437.78;;;9.29;52.94
47280;BME280;34064;44.942;0.008;2023-03-03T09:39:29;99436.56;;;9.34;52.80
47280;BME280;34064;44.942;0.008;2023-03-03T09:47:38;99420.16;;;9.57;51.72
47280;BME280;34064;44.942;0.008;2023-03-03T09:53:23;99426.41;;;9.70;51.29
47280;BME280;34064;44.942;0.008;2023-03-03T09:56:11;99412.75;;;9.76;51.18
47280;BME280;34064;44.942;0.008;2023-03-03T10:17:49;99409.47;;;10.27;49.52
47280;BME280;34064;44.942;0.008;2023-03-03T10:23:02;99408.50;;;10.43;49.27
47280;BME280;34064;44.942;0.008;2023-03-03T10:25:55;99398.66;;;10.58;48.55
47280;BME280;34064;44.942;0.008;2023-03-03T10:42:26;99390.84;;;11.08;46.94
47280;BME280;34064;44.942;0.008;2023-03-03T10:45:19;99396.56;;;11.15;46.62
47280;BME280;34064;44.942;0.008;2023-03-03T11:01:57;99367.25;;;11.66;45.24
47280;BME280;34064;44.942;0.008;2023-03-03T11:04:48;99372.97;;;11.73;44.34
47280;BME280;34064;44.942;0.008;2023-03-03T11:13:27;99347.78;;;12.03;43.67
47280;BME280;34064;44.942;0.008;2023-03-03T11:16:33;99356.25;;;12.08;43.86
47280;BME280;34064;44.942;0.008;2023-03-03T11:21:37;99348.47;;;12.29;42.11
47280;BME280;34064;44.942;0.008;2023-03-03T11:27:07;99333.75;;;12.37;42.96
47280;BME280;34064;44.942;0.008;2023-03-03T11:40:52;99320.16;;;12.87;42.23
47280;BME280;34064;44.942;0.008;2023-03-03T11:43:31;99325.22;;;12.90;41.79
47280;BME280;34064;44.942;0.008;2023-03-03T11:46:08;99322.47;;;12.91;41.81
47280;BME280;34064;44.942;0.008;2023-03-03T11:56:22;99314.09;;;13.19;41.25
47280;BME280;34064;44.942;0.008;2023-03-03T12:02:02;99302.22;;;13.46;40.08
47280;BME280;34064;44.942;0.008;2023-03-03T12:04:35;99301.50;;;13.44;39.21
47280;BME280;34064;44.942;0.008;2023-03-03T12:07:28;99307.28;;;13.37;39.96
47280;BME280;34064;44.942;0.008;2023-03-03T12:10:32;99308.28;;;13.36;40.54
47280;BME280;34064;44.942;0.008;2023-03-03T12:13:15;99307.56;;;13.46;40.42
47280;BME280;34064;44.942;0.008;2023-03-03T12:26:26;99280.78;;;13.80;39.42
47280;BME280;34064;44.942;0.008;2023-03-03T12:31:54;99280.19;;;13.76;38.22
47280;BME280;34064;44.942;0.008;2023-03-03T12:34:37;99269.13;;;13.81;37.66
47280;BME280;34064;44.942;0.008;2023-03-03T12:45:31;99271.03;;;13.90;38.12
47280;BME280;34064;44.942;0.008;2023-03-03T12:48:20;99259.81;;;13.96;38.22
47280;BME280;34064;44.942;0.008;2023-03-03T12:53:58;99258.09;;;14.07;38.02
47280;BME280;34064;44.942;0.008;2023-03-03T12:56:31;99264.88;;;14.11;37.43
47280;BME280;34064;44.942;0.008;2023-03-03T12:59:13;99266.63;;;14.00;36.68
47280;BME280;34064;44.942;0.008;2023-03-03T13:04:40;99270.69;;;13.83;37.98
47280;BME280;34064;44.942;0.008;2023-03-03T13:15:12;99262.53;;;13.85;37.74
47280;BME280;34064;44.942;0.008;2023-03-03T13:20:40;99260.00;;;13.83;37.31
47280;BME280;34064;44.942;0.008;2023-03-03T13:23:48;99250.91;;;13.75;37.49
47280;BME280;34064;44.942;0.008;2023-03-03T13:29:36;99255.28;;;13.76;37.16
47280;BME280;34064;44.942;0.008;2023-03-03T13:31:55;99249.72;;;13.79;36.74
47280;BME280;34064;44.942;0.008;2023-03-03T13:42:22;99248.31;;;13.96;37.64
47280;BME280;34064;44.942;0.008;2023-03-03T13:44:50;99244.09;;;13.93;37.82
47280;BME280;34064;44.942;0.008;2023-03-03T14:07:37;99247.03;;;13.79;37.38
47280;BME280;34064;44.942;0.008;2023-03-03T14:10:25;99250.91;;;13.75;37.38
47280;BME280;34064;44.942;0.008;2023-03-03T14:13:27;99245.19;;;13.79;36.83
47280;BME280;34064;44.942;0.008;2023-03-03T14:16:10;99251.31;;;13.70;37.37
47280;BME280;34064;44.942;0.008;2023-03-03T14:19:09;99248.78;;;13.68;37.17
47280;BME280;34064;44.942;0.008;2023-03-03T14:24:20;99248.78;;;13.68;36.98
47280;BME280;34064;44.942;0.008;2023-03-03T14:26:50;99247.78;;;13.69;37.34
47280;BME280;34064;44.942;0.008;2023-03-03T14:32:02;99244.69;;;13.64;37.16
47280;BME280;34064;44.942;0.008;2023-03-03T14:34:45;99246.63;;;13.62;37.29
47280;BME280;34064;44.942;0.008;2023-03-03T14:37:41;99248.56;;;13.60;36.89
47280;BME280;34064;44.942;0.008;2023-03-03T14:40:18;99260.94;;;13.61;37.06
47280;BME280;34064;44.942;0.008;2023-03-03T14:43:22;99246.41;;;13.54;37.16
47280;BME280;34064;44.942;0.008;2023-03-03T14:45:50;99256.09;;;13.55;37.01
47280;BME280;34064;44.942;0.008;2023-03-03T14:48:22;99249.31;;;13.51;37.07
47280;BME280;34064;44.942;0.008;2023-03-03T14:53:46;99254.66;;;13.51;37.52
47280;BME280;34064;44.942;0.008;2023-03-03T14:56:22;99254.66;;;13.51;37.19
47280;BME280;34064;44.942;0.008;2023-03-03T14:58:54;99253.19;;;13.47;37.12
47280;BME280;34064;44.942;0.008;2023-03-03T15:01:37;99251.75;;;13.43;37.49
47280;BME280;34064;44.942;0.008;2023-03-03T15:06:53;99267.25;;;13.37;37.06
47280;BME280;34064;44.942;0.008;2023-03-03T15:11:53;99266.78;;;13.32;37.28
47280;BME280;34064;44.942;0.008;2023-03-03T15:14:33;99267.75;;;13.31;37.33
47280;BME280;34064;44.942;0.008;2023-03-03T15:17:23;99266.06;;;13.30;37.53
47280;BME280;34064;44.942;0.008;2023-03-03T15:20:01;99260.84;;;13.29;37.41
47280;BME280;34064;44.942;0.008;2023-03-03T15:22:57;99273.34;;;13.28;37.46
47280;BME280;34064;44.942;0.008;2023-03-03T15:28:26;99276.38;;;13.23;37.64
47280;BME280;34064;44.942;0.008;2023-03-03T15:37:18;99271.41;;;13.19;37.25
47280;BME280;34064;44.942;0.008;2023-03-03T15:39:54;99268.03;;;13.17;37.32
47280;BME280;34064;44.942;0.008;2023-03-03T15:42:36;99266.06;;;13.19;37.45
47280;BME280;34064;44.942;0.008;2023-03-03T15:45:30;99269.47;;;13.21;37.43
47280;BME280;34064;44.942;0.008;2023-03-03T15:51:23;99269.00;;;13.27;37.24
47280;BME280;34064;44.942;0.008;2023-03-03T15:54:39;99257.31;;;13.28;37.15
47280;BME280;34064;44.942;0.008;2023-03-03T15:57:16;99267.03;;;13.29;37.30
47280;BME280;34064;44.942;0.008;2023-03-03T16:02:45;99259.63;;;13.33;37.58
47280;BME280;34064;44.942;0.008;2023-03-03T16:05:37;99255.97;;;13.34;37.37
47280;BME280;34064;44.942;0.008;2023-03-03T16:08:16;99247.00;;;13.35;37.27
47280;BME280;34064;44.942;0.008;2023-03-03T16:11:09;99259.50;;;13.34;37.30
47280;BME280;34064;44.942;0.008;2023-03-03T16:13:59;99257.94;;;13.32;37.10
47280;BME280;34064;44.942;0.008;2023-03-03T16:25:25;99258.06;;;13.30;37.52
47280;BME280;34064;44.942;0.008;2023-03-03T16:30:40;99255.53;;;13.29;36.99
47280;BME280;34064;44.942;0.008;2023-03-03T16:46:48;99269.09;;;13.14;37.70
47280;BME280;34064;44.942;0.008;2023-03-03T16:49:36;99271.06;;;13.12;37.94
47280;BME280;34064;44.942;0.008;2023-03-03T16:52:12;99275.53;;;13.11;38.05
47280;BME280;34064;44.942;0.008;2023-03-03T16:54:46;99282.81;;;13.09;37.86
47280;BME280;34064;44.942;0.008;2023-03-03T16:57:56;99282.09;;;13.07;37.80
47280;BME280;34064;44.942;0.008;2023-03-03T17:00:29;99282.56;;;13.01;38.20
47280;BME280;34064;44.942;0.008;2023-03-03T17:06:29;99295.53;;;12.94;37.95
47280;BME280;34064;44.942;0.008;2023-03-03T17:17:43;99311.91;;;12.78;38.94
47280;BME280;34064;44.942;0.008;2023-03-03T17:42:50;99364.09;;;12.23;40.35
47280;BME280;34064;44.942;0.008;2023-03-03T17:45:21;99382.19;;;12.17;40.60
47280;BME280;34064;44.942;0.008;2023-03-03T17:56:16;99399.06;;;12.05;41.24
47280;BME280;34064;44.942;0.008;2023-03-03T18:10:13;99422.13;;;11.80;41.59
47280;BME280;34064;44.942;0.008;2023-03-03T18:18:04;99437.72;;;11.61;42.27
47280;BME280;34064;44.942;0.008;2023-03-03T18:23:40;99438.16;;;11.54;42.22
47280;BME280;34064;44.942;0.008;2023-03-03T18:29:24;99445.09;;;11.44;42.26
47280;BME280;34064;44.942;0.008;2023-03-03T18:34:37;99443.81;;;11.37;42.38
47280;BME280;34064;44.942;0.008;2023-03-03T18:42:43;99454.34;;;11.26;42.89
47280;BME280;34064;44.942;0.008;2023-03-03T18:55:52;99478.59;;;11.08;43.11
47280;BME280;34064;44.942;0.008;2023-03-03T19:00:48;99485.69;;;10.95;43.44
47280;BME280;34064;44.942;0.008;2023-03-03T19:03:32;99483.22;;;10.91;43.07
47280;BME280;34064;44.942;0.008;2023-03-03T19:06:01;99481.72;;;10.87;43.24